sensor_id;sensor_type;location;lat;lon;timestamp;temperature;humidity
22781;DHT22;11557;50.884;4.322;2023-08-12T00:01:50;23.30;99.90
22781;DHT22;11557;50.884;4.322;2023-08-12T00:04:15;23.30;99.90
22781;DHT22;11557;50.884;4.322;2023-08-12T00:06:42;23.30;99.90
22781;DHT22;11557;50.884;4.322;2023-08-12T00:09:09;23.30;99.90
22781;DHT22;11557;50.884;4.322;2023-08-12T00:11:35;23.30;99.90
22781;DHT22;11557;50.884;4.322;2023-08-12T00:14:01;23.20;99.90
22781;DHT22;11557;50.884;4.322;2023-08-12T00:16:27;23.20;99.90
22781;DHT22;11557;50.884;4.322;2023-08-12T00:18:52;23.30;99.90
22781;DHT22;11557;50.884;4.322;2023-08-12T00:21:18;23.20;99.90
22781;DHT22;11557;50.884;4.322;2023-08-12T00:23:44;23.10;99.90
22781;DHT22;11557;50.884;4.322;2023-08-12T00:26:10;23.10;99.90
22781;DHT22;11557;50.884;4.322;2023-08-12T00:28:36;23.00;99.90
22781;DHT22;11557;50.884;4.322;2023-08-12T00:31:02;23.00;99.90
22781;DHT22;11557;50.884;4.322;2023-08-12T00:33:28;23.00;99.90
22781;DHT22;11557;50.884;4.322;2023-08-12T00:35:54;23.00;99.90
22781;DHT22;11557;50.884;4.322;2023-08-12T00:38:20;23.00;99.90
22781;DHT22;11557;50.884;4.322;2023-08-12T00:40:46;23.00;99.90
22781;DHT22;11557;50.884;4.322;2023-08-12T00:43:12;23.00;99.90
22781;DHT22;11557;50.884;4.322;2023-08-12T00:45:38;23.00;99.90
22781;DHT22;11557;50.884;4.322;2023-08-12T00:48:04;23.00;99.90
22781;DHT22;11557;50.884;4.322;2023-08-12T00:50:30;22.90;99.90
22781;DHT22;11557;50.884;4.322;2023-08-12T00:52:57;22.90;99.90
22781;DHT22;11557;50.884;4.322;2023-08-12T00:55:23;23.00;99.90
22781;DHT22;11557;50.884;4.322;2023-08-12T00:57:49;22.90;99.90
22781;DHT22;11557;50.884;4.322;2023-08-12T01:00:16;22.90;99.90
22781;DHT22;11557;50.884;4.322;2023-08-12T01:02:45;23.00;99.90
22781;DHT22;11557;50.884;4.322;2023-08-12T01:05:14;22.90;99.90
22781;DHT22;11557;50.884;4.322;2023-08-12T01:07:41;22.80;99.90
22781;DHT22;11557;50.884;4.322;2023-08-12T01:10:07;22.90;99.90
22781;DHT22;11557;50.884;4.322;2023-08-12T01:12:41;22.80;99.90
22781;DHT22;11557;50.884;4.322;2023-08-12T01:15:22;22.60;99.90
22781;DHT22;11557;50.884;4.322;2023-08-12T01:17:49;22.70;99.90
22781;DHT22;11557;50.884;4.322;2023-08-12T01:20:20;22.80;99.90
22781;DHT22;11557;50.884;4.322;2023-08-12T01:23:14;22.60;99.90
22781;DHT22;11557;50.884;4.322;2023-08-12T01:25:43;22.50;99.90
22781;DHT22;11557;50.884;4.322;2023-08-12T01:28:09;22.60;99.90
22781;DHT22;11557;50.884;4.322;2023-08-12T01:30:55;22.70;99.90
22781;DHT22;11557;50.884;4.322;2023-08-12T01:33:49;22.80;99.90
22781;DHT22;11557;50.884;4.322;2023-08-12T01:36:19;22.90;99.90
22781;DHT22;11557;50.884;4.322;2023-08-12T01:38:46;22.90;99.90
22781;DHT22;11557;50.884;4.322;2023-08-12T01:41:13;22.90;99.90
22781;DHT22;11557;50.884;4.322;2023-08-12T01:43:41;22.90;99.90
22781;DHT22;11557;50.884;4.322;2023-08-12T01:46:07;22.90;99.90
22781;DHT22;11557;50.884;4.322;2023-08-12T01:48:33;23.00;99.90
22781;DHT22;11557;50.884;4.322;2023-08-12T01:51:00;23.00;99.90
22781;DHT22;11557;50.884;4.322;2023-08-12T01:53:25;23.00;99.90
22781;DHT22;11557;50.884;4.322;2023-08-12T01:55:52;23.00;99.90
22781;DHT22;11557;50.884;4.322;2023-08-12T01:58:18;23.00;99.90
22781;DHT22;11557;50.884;4.322;2023-08-12T02:00:43;23.00;99.90
22781;DHT22;11557;50.884;4.322;2023-08-12T02:03:09;23.00;99.90
22781;DHT22;11557;50.884;4.322;2023-08-12T02:05:35;23.10;99.90
22781;DHT22;11557;50.884;4.322;2023-08-12T02:08:05;23.20;99.90
22781;DHT22;11557;50.884;4.322;2023-08-12T02:10:31;23.20;99.90
22781;DHT22;11557;50.884;4.322;2023-08-12T02:12:57;23.10;99.90
22781;DHT22;11557;50.884;4.322;2023-08-12T02:15:22;23.10;99.90
22781;DHT22;11557;50.884;4.322;2023-08-12T02:17:48;23.10;99.90
22781;DHT22;11557;50.884;4.322;2023-08-12T02:20:14;23.00;99.90
22781;DHT22;11557;50.884;4.322;2023-08-12T02:22:40;22.90;99.90
22781;DHT22;11557;50.884;4.322;2023-08-12T02:25:06;22.80;99.90
22781;DHT22;11557;50.884;4.322;2023-08-12T02:27:31;22.80;99.90
22781;DHT22;11557;50.884;4.322;2023-08-12T02:29:57;22.70;99.90
22781;DHT22;11557;50.884;4.322;2023-08-12T02:32:23;22.60;99.90
22781;DHT22;11557;50.884;4.322;2023-08-12T02:34:48;22.70;99.90
22781;DHT22;11557;50.884;4.322;2023-08-12T02:37:14;22.80;99.90
22781;DHT22;11557;50.884;4.322;2023-08-12T02:39:40;22.70;99.90
22781;DHT22;11557;50.884;4.322;2023-08-12T02:42:05;22.60;99.90
22781;DHT22;11557;50.884;4.322;2023-08-12T02:44:31;22.50;99.90
22781;DHT22;11557;50.884;4.322;2023-08-12T02:46:57;22.50;99.90
22781;DHT22;11557;50.884;4.322;2023-08-12T02:49:22;22.60;99.90
22781;DHT22;11557;50.884;4.322;2023-08-12T02:51:48;22.60;99.90
22781;DHT22;11557;50.884;4.322;2023-08-12T02:54:14;22.70;99.90
22781;DHT22;11557;50.884;4.322;2023-08-12T02:56:39;22.80;99.90
22781;DHT22;11557;50.884;4.322;2023-08-12T02:59:05;22.90;99.90
22781;DHT22;11557;50.884;4.322;2023-08-12T03:01:31;22.90;99.90
22781;DHT22;11557;50.884;4.322;2023-08-12T03:03:57;22.80;99.90
22781;DHT22;11557;50.884;4.322;2023-08-12T03:06:22;22.90;99.90
22781;DHT22;11557;50.884;4.322;2023-08-12T03:08:48;22.90;99.90
22781;DHT22;11557;50.884;4.322;2023-08-12T03:11:13;22.90;99.90
22781;DHT22;11557;50.884;4.322;2023-08-12T03:13:39;22.90;99.90
22781;DHT22;11557;50.884;4.322;2023-08-12T03:16:08;22.90;99.90
22781;DHT22;11557;50.884;4.322;2023-08-12T03:18:36;22.60;99.90
22781;DHT22;11557;50.884;4.322;2023-08-12T03:21:06;22.70;99.90
22781;DHT22;11557;50.884;4.322;2023-08-12T03:23:31;22.50;99.90
22781;DHT22;11557;50.884;4.322;2023-08-12T03:25:57;22.40;99.90
22781;DHT22;11557;50.884;4.322;2023-08-12T03:28:23;22.50;99.90
22781;DHT22;11557;50.884;4.322;2023-08-12T03:30:52;22.50;99.90
22781;DHT22;11557;50.884;4.322;2023-08-12T03:33:18;22.60;99.90
22781;DHT22;11557;50.884;4.322;2023-08-12T03:35:47;22.40;99.90
22781;DHT22;11557;50.884;4.322;2023-08-12T03:38:13;22.50;99.90
22781;DHT22;11557;50.884;4.322;2023-08-12T03:40:40;22.40;99.90
22781;DHT22;11557;50.884;4.322;2023-08-12T03:43:06;22.40;99.90
22781;DHT22;11557;50.884;4.322;2023-08-12T03:45:31;22.30;99.90
22781;DHT22;11557;50.884;4.322;2023-08-12T03:47:57;22.40;99.90
22781;DHT22;11557;50.884;4.322;2023-08-12T03:50:23;22.40;99.90
22781;DHT22;11557;50.884;4.322;2023-08-12T03:52:48;22.30;99.90
22781;DHT22;11557;50.884;4.322;2023-08-12T03:55:14;22.10;99.90
22781;DHT22;11557;50.884;4.322;2023-08-12T03:57:41;22.00;99.90
22781;DHT22;11557;50.884;4.322;2023-08-12T04:00:07;21.90;99.90
22781;DHT22;11557;50.884;4.322;2023-08-12T04:02:34;21.80;99.90
22781;DHT22;11557;50.884;4.322;2023-08-12T04:04:59;21.90;99.90
22781;DHT22;11557;50.884;4.322;2023-08-12T04:07:25;22.00;99.90
22781;DHT22;11557;50.884;4.322;2023-08-12T04:09:52;22.10;99.90
22781;DHT22;11557;50.884;4.322;2023-08-12T04:12:18;21.90;99.90
22781;DHT22;11557;50.884;4.322;2023-08-12T04:14:44;21.90;99.90
22781;DHT22;11557;50.884;4.322;2023-08-12T04:17:09;21.60;99.90
22781;DHT22;11557;50.884;4.322;2023-08-12T04:19:35;21.70;99.90
22781;DHT22;11557;50.884;4.322;2023-08-12T04:22:01;21.70;99.90
22781;DHT22;11557;50.884;4.322;2023-08-12T04:24:26;21.80;99.90
22781;DHT22;11557;50.884;4.322;2023-08-12T04:26:52;21.80;99.90
22781;DHT22;11557;50.884;4.322;2023-08-12T04:29:18;21.70;99.90
22781;DHT22;11557;50.884;4.322;2023-08-12T04:31:43;21.70;99.90
22781;DHT22;11557;50.884;4.322;2023-08-12T04:34:09;21.80;99.90
22781;DHT22;11557;50.884;4.322;2023-08-12T04:36:34;21.70;99.90
22781;DHT22;11557;50.884;4.322;2023-08-12T04:39:00;21.70;99.90
22781;DHT22;11557;50.884;4.322;2023-08-12T04:41:26;21.50;99.90
22781;DHT22;11557;50.884;4.322;2023-08-12T04:43:52;21.40;99.90
22781;DHT22;11557;50.884;4.322;2023-08-12T04:46:17;21.40;99.90
22781;DHT22;11557;50.884;4.322;2023-08-12T04:48:43;21.30;99.90
22781;DHT22;11557;50.884;4.322;2023-08-12T04:51:09;21.40;99.90
22781;DHT22;11557;50.884;4.322;2023-08-12T04:53:35;21.30;99.90
22781;DHT22;11557;50.884;4.322;2023-08-12T04:56:01;21.40;99.90
22781;DHT22;11557;50.884;4.322;2023-08-12T04:58:27;21.60;99.90
22781;DHT22;11557;50.884;4.322;2023-08-12T05:00:53;21.70;99.90
22781;DHT22;11557;50.884;4.322;2023-08-12T05:03:18;21.60;99.90
22781;DHT22;11557;50.884;4.322;2023-08-12T05:05:51;21.50;99.90
22781;DHT22;11557;50.884;4.322;2023-08-12T05:08:17;21.60;99.90
22781;DHT22;11557;50.884;4.322;2023-08-12T05:10:43;21.60;99.90
22781;DHT22;11557;50.884;4.322;2023-08-12T05:13:09;21.70;99.90
22781;DHT22;11557;50.884;4.322;2023-08-12T05:15:35;21.70;99.90
22781;DHT22;11557;50.884;4.322;2023-08-12T05:18:02;21.70;99.90
22781;DHT22;11557;50.884;4.322;2023-08-12T05:20:28;21.70;99.90
22781;DHT22;11557;50.884;4.322;2023-08-12T05:22:54;21.50;99.90
22781;DHT22;11557;50.884;4.322;2023-08-12T05:25:20;21.50;99.90
22781;DHT22;11557;50.884;4.322;2023-08-12T05:27:45;21.60;99.90
22781;DHT22;11557;50.884;4.322;2023-08-12T05:30:12;21.80;99.90
22781;DHT22;11557;50.884;4.322;2023-08-12T05:32:37;21.60;99.90
22781;DHT22;11557;50.884;4.322;2023-08-12T05:35:03;21.60;99.90
22781;DHT22;11557;50.884;4.322;2023-08-12T05:37:29;21.70;99.90
22781;DHT22;11557;50.884;4.322;2023-08-12T05:39:55;21.70;99.90
22781;DHT22;11557;50.884;4.322;2023-08-12T05:42:20;21.70;99.90
22781;DHT22;11557;50.884;4.322;2023-08-12T05:44:46;21.70;99.90
22781;DHT22;11557;50.884;4.322;2023-08-12T05:47:12;21.70;99.90
22781;DHT22;11557;50.884;4.322;2023-08-12T05:49:37;21.70;99.90
22781;DHT22;11557;50.884;4.322;2023-08-12T05:52:03;21.70;99.90
22781;DHT22;11557;50.884;4.322;2023-08-12T05:54:29;21.70;99.90
22781;DHT22;11557;50.884;4.322;2023-08-12T05:56:55;21.70;99.90
22781;DHT22;11557;50.884;4.322;2023-08-12T05:59:20;21.70;99.90
22781;DHT22;11557;50.884;4.322;2023-08-12T06:01:46;21.80;99.90
22781;DHT22;11557;50.884;4.322;2023-08-12T06:04:12;21.80;99.90
22781;DHT22;11557;50.884;4.322;2023-08-12T06:06:37;21.80;99.90
22781;DHT22;11557;50.884;4.322;2023-08-12T06:09:03;21.90;99.90
22781;DHT22;11557;50.884;4.322;2023-08-12T06:11:29;22.00;99.90
22781;DHT22;11557;50.884;4.322;2023-08-12T06:13:54;21.90;99.90
22781;DHT22;11557;50.884;4.322;2023-08-12T06:16:20;21.90;99.90
22781;DHT22;11557;50.884;4.322;2023-08-12T06:18:46;21.80;99.90
22781;DHT22;11557;50.884;4.322;2023-08-12T06:21:11;21.70;99.90
22781;DHT22;11557;50.884;4.322;2023-08-12T06:23:37;21.70;99.90
22781;DHT22;11557;50.884;4.322;2023-08-12T06:26:03;21.80;99.90
22781;DHT22;11557;50.884;4.322;2023-08-12T06:28:28;21.90;99.90
22781;DHT22;11557;50.884;4.322;2023-08-12T06:30:54;21.90;99.90
22781;DHT22;11557;50.884;4.322;2023-08-12T06:33:20;22.00;99.90
22781;DHT22;11557;50.884;4.322;2023-08-12T06:35:45;22.10;99.90
22781;DHT22;11557;50.884;4.322;2023-08-12T06:38:11;22.00;99.90
22781;DHT22;11557;50.884;4.322;2023-08-12T06:40:38;22.00;99.90
22781;DHT22;11557;50.884;4.322;2023-08-12T06:43:04;22.00;99.90
22781;DHT22;11557;50.884;4.322;2023-08-12T06:45:29;22.00;99.90
22781;DHT22;11557;50.884;4.322;2023-08-12T06:47:55;21.90;99.90
22781;DHT22;11557;50.884;4.322;2023-08-12T06:50:21;21.80;99.90
22781;DHT22;11557;50.884;4.322;2023-08-12T06:52:46;21.90;99.90
22781;DHT22;11557;50.884;4.322;2023-08-12T06:55:12;22.00;99.90
22781;DHT22;11557;50.884;4.322;2023-08-12T06:57:37;22.00;99.90
22781;DHT22;11557;50.884;4.322;2023-08-12T07:00:03;22.00;99.90
22781;DHT22;11557;50.884;4.322;2023-08-12T07:02:30;21.90;99.90
22781;DHT22;11557;50.884;4.322;2023-08-12T07:04:56;21.80;99.90
22781;DHT22;11557;50.884;4.322;2023-08-12T07:07:22;21.80;99.90
22781;DHT22;11557;50.884;4.322;2023-08-12T07:09:48;21.60;99.90
22781;DHT22;11557;50.884;4.322;2023-08-12T07:12:13;21.40;99.90
22781;DHT22;11557;50.884;4.322;2023-08-12T07:14:39;21.20;99.90
22781;DHT22;11557;50.884;4.322;2023-08-12T07:17:05;21.10;99.90
22781;DHT22;11557;50.884;4.322;2023-08-12T07:19:30;21.10;99.90
22781;DHT22;11557;50.884;4.322;2023-08-12T07:21:56;21.00;99.90
22781;DHT22;11557;50.884;4.322;2023-08-12T07:24:22;21.00;99.90
22781;DHT22;11557;50.884;4.322;2023-08-12T07:26:48;20.90;99.90
22781;DHT22;11557;50.884;4.322;2023-08-12T07:29:13;21.30;99.90
22781;DHT22;11557;50.884;4.322;2023-08-12T07:31:39;21.00;99.90
22781;DHT22;11557;50.884;4.322;2023-08-12T07:34:05;21.10;99.90
22781;DHT22;11557;50.884;4.322;2023-08-12T07:36:31;21.10;99.90
22781;DHT22;11557;50.884;4.322;2023-08-12T07:38:58;21.00;99.90
22781;DHT22;11557;50.884;4.322;2023-08-12T07:41:24;21.00;99.90
22781;DHT22;11557;50.884;4.322;2023-08-12T07:43:52;21.00;99.90
22781;DHT22;11557;50.884;4.322;2023-08-12T07:46:18;21.10;99.90
22781;DHT22;11557;50.884;4.322;2023-08-12T07:48:44;21.30;99.90
22781;DHT22;11557;50.884;4.322;2023-08-12T07:51:09;21.40;99.90
22781;DHT22;11557;50.884;4.322;2023-08-12T07:53:35;21.30;99.90
22781;DHT22;11557;50.884;4.322;2023-08-12T07:56:01;21.30;99.90
22781;DHT22;11557;50.884;4.322;2023-08-12T07:58:26;21.20;99.90
22781;DHT22;11557;50.884;4.322;2023-08-12T08:00:53;21.30;99.90
22781;DHT22;11557;50.884;4.322;2023-08-12T08:03:19;21.10;99.90
22781;DHT22;11557;50.884;4.322;2023-08-12T08:05:45;21.00;99.90
22781;DHT22;11557;50.884;4.322;2023-08-12T08:08:12;21.20;99.90
22781;DHT22;11557;50.884;4.322;2023-08-12T08:10:38;21.30;99.90
22781;DHT22;11557;50.884;4.322;2023-08-12T08:13:04;21.40;99.90
22781;DHT22;11557;50.884;4.322;2023-08-12T08:15:29;21.40;99.90
22781;DHT22;11557;50.884;4.322;2023-08-12T08:17:55;21.50;99.90
22781;DHT22;11557;50.884;4.322;2023-08-12T08:20:21;21.50;99.90
22781;DHT22;11557;50.884;4.322;2023-08-12T08:22:47;21.40;99.90
22781;DHT22;11557;50.884;4.322;2023-08-12T08:25:13;21.60;99.90
22781;DHT22;11557;50.884;4.322;2023-08-12T08:27:38;21.50;99.90
22781;DHT22;11557;50.884;4.322;2023-08-12T08:30:10;21.50;99.90
22781;DHT22;11557;50.884;4.322;2023-08-12T08:32:36;21.50;99.90
22781;DHT22;11557;50.884;4.322;2023-08-12T08:35:02;21.50;99.90
22781;DHT22;11557;50.884;4.322;2023-08-12T08:37:27;21.70;99.90
22781;DHT22;11557;50.884;4.322;2023-08-12T08:39:53;21.70;99.90
22781;DHT22;11557;50.884;4.322;2023-08-12T08:42:20;21.70;99.90
22781;DHT22;11557;50.884;4.322;2023-08-12T08:44:46;21.50;99.90
22781;DHT22;11557;50.884;4.322;2023-08-12T08:47:25;21.40;99.90
22781;DHT22;11557;50.884;4.322;2023-08-12T08:49:52;21.40;99.90
22781;DHT22;11557;50.884;4.322;2023-08-12T08:52:19;21.30;99.90
22781;DHT22;11557;50.884;4.322;2023-08-12T08:54:45;21.20;99.90
22781;DHT22;11557;50.884;4.322;2023-08-12T08:57:11;21.40;99.90
22781;DHT22;11557;50.884;4.322;2023-08-12T08:59:38;21.60;99.90
22781;DHT22;11557;50.884;4.322;2023-08-12T09:02:04;21.60;99.90
22781;DHT22;11557;50.884;4.322;2023-08-12T09:04:33;22.10;99.90
22781;DHT22;11557;50.884;4.322;2023-08-12T09:06:59;22.10;99.90
22781;DHT22;11557;50.884;4.322;2023-08-12T09:09:26;22.10;99.90
22781;DHT22;11557;50.884;4.322;2023-08-12T09:11:53;21.90;99.90
22781;DHT22;11557;50.884;4.322;2023-08-12T09:14:21;21.60;99.90
22781;DHT22;11557;50.884;4.322;2023-08-12T09:16:47;21.60;99.90
22781;DHT22;11557;50.884;4.322;2023-08-12T09:19:12;21.60;99.90
22781;DHT22;11557;50.884;4.322;2023-08-12T09:21:38;21.60;99.90
22781;DHT22;11557;50.884;4.322;2023-08-12T09:24:07;21.80;99.90
22781;DHT22;11557;50.884;4.322;2023-08-12T09:26:33;21.70;99.90
22781;DHT22;11557;50.884;4.322;2023-08-12T09:28:59;21.90;99.90
22781;DHT22;11557;50.884;4.322;2023-08-12T09:31:41;22.20;99.90
22781;DHT22;11557;50.884;4.322;2023-08-12T09:34:06;22.10;99.90
22781;DHT22;11557;50.884;4.322;2023-08-12T09:36:33;21.90;99.90
22781;DHT22;11557;50.884;4.322;2023-08-12T09:38:59;21.90;99.90
22781;DHT22;11557;50.884;4.322;2023-08-12T09:41:26;21.90;99.90
22781;DHT22;11557;50.884;4.322;2023-08-12T09:43:53;22.10;99.90
22781;DHT22;11557;50.884;4.322;2023-08-12T09:46:21;22.20;99.90
22781;DHT22;11557;50.884;4.322;2023-08-12T09:48:50;22.00;99.90
22781;DHT22;11557;50.884;4.322;2023-08-12T09:51:15;22.00;99.90
22781;DHT22;11557;50.884;4.322;2023-08-12T09:53:42;22.10;99.90
22781;DHT22;11557;50.884;4.322;2023-08-12T09:56:08;22.10;99.90
22781;DHT22;11557;50.884;4.322;2023-08-12T09:58:37;22.20;99.90
22781;DHT22;11557;50.884;4.322;2023-08-12T10:01:04;22.30;99.90
22781;DHT22;11557;50.884;4.322;2023-08-12T10:03:34;22.70;99.90
22781;DHT22;11557;50.884;4.322;2023-08-12T10:06:01;23.00;99.90
22781;DHT22;11557;50.884;4.322;2023-08-12T10:08:30;23.10;99.90
22781;DHT22;11557;50.884;4.322;2023-08-12T10:10:59;23.10;99.90
22781;DHT22;11557;50.884;4.322;2023-08-12T10:13:25;23.50;99.90
22781;DHT22;11557;50.884;4.322;2023-08-12T10:15:51;23.40;99.90
22781;DHT22;11557;50.884;4.322;2023-08-12T10:18:18;23.20;99.90
22781;DHT22;11557;50.884;4.322;2023-08-12T10:20:44;23.10;99.90
22781;DHT22;11557;50.884;4.322;2023-08-12T10:23:16;23.00;99.90
22781;DHT22;11557;50.884;4.322;2023-08-12T10:25:43;23.20;99.90
22781;DHT22;11557;50.884;4.322;2023-08-12T10:28:10;23.60;99.90
22781;DHT22;11557;50.884;4.322;2023-08-12T10:30:40;24.00;99.90
22781;DHT22;11557;50.884;4.322;2023-08-12T10:33:07;24.70;99.90
22781;DHT22;11557;50.884;4.322;2023-08-12T10:35:43;25.20;99.90
22781;DHT22;11557;50.884;4.322;2023-08-12T10:38:11;25.30;99.90
22781;DHT22;11557;50.884;4.322;2023-08-12T10:40:38;25.60;99.90
22781;DHT22;11557;50.884;4.322;2023-08-12T10:43:04;25.90;99.90
22781;DHT22;11557;50.884;4.322;2023-08-12T10:45:48;25.60;99.90
22781;DHT22;11557;50.884;4.322;2023-08-12T10:48:18;25.30;99.90
22781;DHT22;11557;50.884;4.322;2023-08-12T10:50:54;25.50;99.90
22781;DHT22;11557;50.884;4.322;2023-08-12T10:55:56;25.40;99.90
22781;DHT22;11557;50.884;4.322;2023-08-12T10:58:28;25.00;99.90
22781;DHT22;11557;50.884;4.322;2023-08-12T11:00:54;25.10;99.90
22781;DHT22;11557;50.884;4.322;2023-08-12T11:03:21;25.10;99.90
22781;DHT22;11557;50.884;4.322;2023-08-12T11:05:46;25.30;99.90
22781;DHT22;11557;50.884;4.322;2023-08-12T11:08:13;24.90;99.90
22781;DHT22;11557;50.884;4.322;2023-08-12T11:10:39;24.90;99.90
22781;DHT22;11557;50.884;4.322;2023-08-12T11:13:06;24.70;99.90
22781;DHT22;11557;50.884;4.322;2023-08-12T11:15:39;24.90;99.90
22781;DHT22;11557;50.884;4.322;2023-08-12T11:18:18;25.20;99.90
22781;DHT22;11557;50.884;4.322;2023-08-12T11:20:45;25.00;99.90
22781;DHT22;11557;50.884;4.322;2023-08-12T11:23:10;24.70;99.90
22781;DHT22;11557;50.884;4.322;2023-08-12T11:25:38;24.70;99.90
22781;DHT22;11557;50.884;4.322;2023-08-12T11:28:05;24.90;99.90
22781;DHT22;11557;50.884;4.322;2023-08-12T11:30:31;25.00;99.90
22781;DHT22;11557;50.884;4.322;2023-08-12T11:32:58;25.00;99.90
22781;DHT22;11557;50.884;4.322;2023-08-12T11:35:25;25.20;99.90
22781;DHT22;11557;50.884;4.322;2023-08-12T11:37:52;25.60;99.90
22781;DHT22;11557;50.884;4.322;2023-08-12T11:40:26;25.90;99.90
22781;DHT22;11557;50.884;4.322;2023-08-12T11:42:54;25.90;99.90
22781;DHT22;11557;50.884;4.322;2023-08-12T11:45:23;25.90;99.90
22781;DHT22;11557;50.884;4.322;2023-08-12T11:47:49;26.00;99.90
22781;DHT22;11557;50.884;4.322;2023-08-12T11:50:25;26.30;99.90
22781;DHT22;11557;50.884;4.322;2023-08-12T11:52:55;26.40;99.90
22781;DHT22;11557;50.884;4.322;2023-08-12T11:55:29;26.50;99.90
22781;DHT22;11557;50.884;4.322;2023-08-12T11:57:55;26.50;99.90
22781;DHT22;11557;50.884;4.322;2023-08-12T12:00:21;26.60;99.90
22781;DHT22;11557;50.884;4.322;2023-08-12T12:02:55;26.60;99.90
22781;DHT22;11557;50.884;4.322;2023-08-12T12:05:27;26.70;99.90
22781;DHT22;11557;50.884;4.322;2023-08-12T12:07:53;26.60;99.90
22781;DHT22;11557;50.884;4.322;2023-08-12T12:10:28;26.60;99.90
22781;DHT22;11557;50.884;4.322;2023-08-12T12:12:57;26.40;99.90
22781;DHT22;11557;50.884;4.322;2023-08-12T12:15:23;26.40;99.90
22781;DHT22;11557;50.884;4.322;2023-08-12T12:17:49;26.60;99.90
22781;DHT22;11557;50.884;4.322;2023-08-12T12:20:16;26.80;99.90
22781;DHT22;11557;50.884;4.322;2023-08-12T12:22:43;26.60;99.90
22781;DHT22;11557;50.884;4.322;2023-08-12T12:25:12;26.70;99.90
22781;DHT22;11557;50.884;4.322;2023-08-12T12:27:39;26.60;99.90
22781;DHT22;11557;50.884;4.322;2023-08-12T12:30:11;26.40;99.90
22781;DHT22;11557;50.884;4.322;2023-08-12T12:32:37;26.20;99.90
22781;DHT22;11557;50.884;4.322;2023-08-12T12:35:04;26.20;99.90
22781;DHT22;11557;50.884;4.322;2023-08-12T12:37:32;26.30;99.90
22781;DHT22;11557;50.884;4.322;2023-08-12T12:39:58;25.80;99.90
22781;DHT22;11557;50.884;4.322;2023-08-12T12:42:24;26.40;99.90
22781;DHT22;11557;50.884;4.322;2023-08-12T12:44:49;26.20;99.90
22781;DHT22;11557;50.884;4.322;2023-08-12T12:47:16;26.30;99.90
22781;DHT22;11557;50.884;4.322;2023-08-12T12:49:42;26.20;99.90
22781;DHT22;11557;50.884;4.322;2023-08-12T12:52:08;26.20;99.90
22781;DHT22;11557;50.884;4.322;2023-08-12T12:54:34;26.00;99.90
22781;DHT22;11557;50.884;4.322;2023-08-12T12:56:59;25.70;99.90
22781;DHT22;11557;50.884;4.322;2023-08-12T12:59:26;25.50;99.90
22781;DHT22;11557;50.884;4.322;2023-08-12T13:01:52;25.60;99.90
22781;DHT22;11557;50.884;4.322;2023-08-12T13:04:18;25.60;99.90
22781;DHT22;11557;50.884;4.322;2023-08-12T13:06:44;25.50;99.90
22781;DHT22;11557;50.884;4.322;2023-08-12T13:09:09;25.30;99.90
22781;DHT22;11557;50.884;4.322;2023-08-12T13:11:38;25.20;99.90
22781;DHT22;11557;50.884;4.322;2023-08-12T13:14:13;25.40;99.90
22781;DHT22;11557;50.884;4.322;2023-08-12T13:16:45;25.70;99.90
22781;DHT22;11557;50.884;4.322;2023-08-12T13:19:10;26.00;99.90
22781;DHT22;11557;50.884;4.322;2023-08-12T13:21:36;26.40;99.90
22781;DHT22;11557;50.884;4.322;2023-08-12T13:24:02;26.40;99.90
22781;DHT22;11557;50.884;4.322;2023-08-12T13:26:29;26.30;99.90
22781;DHT22;11557;50.884;4.322;2023-08-12T13:28:54;26.20;99.90
22781;DHT22;11557;50.884;4.322;2023-08-12T13:31:20;25.90;99.90
22781;DHT22;11557;50.884;4.322;2023-08-12T13:33:57;25.80;99.90
22781;DHT22;11557;50.884;4.322;2023-08-12T13:36:29;25.10;99.90
22781;DHT22;11557;50.884;4.322;2023-08-12T13:38:56;25.90;99.90
22781;DHT22;11557;50.884;4.322;2023-08-12T13:41:21;26.10;99.90
22781;DHT22;11557;50.884;4.322;2023-08-12T13:43:47;26.30;99.90
22781;DHT22;11557;50.884;4.322;2023-08-12T13:46:13;26.20;99.90
22781;DHT22;11557;50.884;4.322;2023-08-12T13:48:38;26.00;99.90
22781;DHT22;11557;50.884;4.322;2023-08-12T13:51:04;26.20;99.90
22781;DHT22;11557;50.884;4.322;2023-08-12T13:53:30;26.00;99.90
22781;DHT22;11557;50.884;4.322;2023-08-12T13:55:56;26.20;99.90
22781;DHT22;11557;50.884;4.322;2023-08-12T13:58:21;26.40;99.90
22781;DHT22;11557;50.884;4.322;2023-08-12T14:00:47;26.20;99.90
22781;DHT22;11557;50.884;4.322;2023-08-12T14:03:13;26.10;99.90
22781;DHT22;11557;50.884;4.322;2023-08-12T14:05:41;26.00;99.90
22781;DHT22;11557;50.884;4.322;2023-08-12T14:08:07;26.10;99.90
22781;DHT22;11557;50.884;4.322;2023-08-12T14:10:32;26.30;99.90
22781;DHT22;11557;50.884;4.322;2023-08-12T14:12:58;26.30;99.90
22781;DHT22;11557;50.884;4.322;2023-08-12T14:15:24;26.40;99.90
22781;DHT22;11557;50.884;4.322;2023-08-12T14:17:57;26.30;99.90
22781;DHT22;11557;50.884;4.322;2023-08-12T14:20:22;26.20;99.90
22781;DHT22;11557;50.884;4.322;2023-08-12T14:22:48;25.90;99.90
22781;DHT22;11557;50.884;4.322;2023-08-12T14:25:14;25.80;99.90
22781;DHT22;11557;50.884;4.322;2023-08-12T14:27:40;25.70;99.90
22781;DHT22;11557;50.884;4.322;2023-08-12T14:30:19;25.80;99.90
22781;DHT22;11557;50.884;4.322;2023-08-12T14:32:48;26.00;99.90
22781;DHT22;11557;50.884;4.322;2023-08-12T14:35:39;26.10;99.90
22781;DHT22;11557;50.884;4.322;2023-08-12T14:38:05;26.20;99.90
22781;DHT22;11557;50.884;4.322;2023-08-12T14:40:30;26.50;99.90
22781;DHT22;11557;50.884;4.322;2023-08-12T14:42:56;26.70;99.90
22781;DHT22;11557;50.884;4.322;2023-08-12T14:45:22;26.70;99.90
22781;DHT22;11557;50.884;4.322;2023-08-12T14:47:47;26.70;99.90
22781;DHT22;11557;50.884;4.322;2023-08-12T14:50:13;26.80;99.90
22781;DHT22;11557;50.884;4.322;2023-08-12T14:52:39;26.80;99.90
22781;DHT22;11557;50.884;4.322;2023-08-12T14:55:05;26.40;99.90
22781;DHT22;11557;50.884;4.322;2023-08-12T14:57:31;26.10;99.90
22781;DHT22;11557;50.884;4.322;2023-08-12T14:59:56;26.30;99.90
22781;DHT22;11557;50.884;4.322;2023-08-12T15:02:22;26.00;99.90
22781;DHT22;11557;50.884;4.322;2023-08-12T15:04:48;26.10;99.90
22781;DHT22;11557;50.884;4.322;2023-08-12T15:07:19;26.20;99.90
22781;DHT22;11557;50.884;4.322;2023-08-12T15:09:46;26.40;99.90
22781;DHT22;11557;50.884;4.322;2023-08-12T15:12:12;26.20;99.90
22781;DHT22;11557;50.884;4.322;2023-08-12T15:14:37;26.40;99.90
22781;DHT22;11557;50.884;4.322;2023-08-12T15:17:07;26.40;99.90
22781;DHT22;11557;50.884;4.322;2023-08-12T15:19:33;26.10;99.90
22781;DHT22;11557;50.884;4.322;2023-08-12T15:22:00;25.90;99.90
22781;DHT22;11557;50.884;4.322;2023-08-12T15:24:26;25.60;99.90
22781;DHT22;11557;50.884;4.322;2023-08-12T15:26:52;25.80;99.90
22781;DHT22;11557;50.884;4.322;2023-08-12T15:29:18;25.50;99.90
22781;DHT22;11557;50.884;4.322;2023-08-12T15:32:13;25.50;99.90